Latest Weather Observations for Katanning RS

IDW60801

Issued at 11:32 am WST Saturday 5 September 2015 (issued every 30 minutes, with the page automatically refreshed every 10 minutes)

About weather observations | Map of weather stations | Latest weather observations for WA | Other Formats
Station Details ID: 010916 Name: KATANNING Lat: -33.69 Lon: 117.61 Height: 320.0 m
Data from the previous 72 hours. | See also: Recent months at Katanning RS
Date/Time
WST
Temp
°C
App
Temp
°C
Dew
Point
Rel
Hum
%
Delta-T
°C
Wind Press
QNH
hPa
Press
MSL
hPa
Rain
since 9 am
mm
Dir
 
Spd
km/h
Gust
km/h
Spd
kts
Gust
kts
05/11:30am 13.6 7.9 6.7 63 3.4 SW 26 41 14 22 1019.2 1019.2 0.0
05/11:00am 13.6 8.1 7.6 67 3.0 WSW 26 35 14 19 1019.1 1019.1 0.0
05/10:30am 13.1 7.9 7.3 68 2.9 WSW 24 35 13 19 1019.1 1019.1 0.0
05/10:09am 12.8 6.9 7.5 70 2.6 WSW 28 46 15 25 1019.1 1019.1 0.0
05/10:00am 13.1 8.1 8.2 72 2.5 WSW 24 35 13 19 1018.8 1018.8 0.0
05/09:30am 12.2 7.3 8.5 78 1.9 WSW 24 35 13 19 1018.6 1018.6 0.0
05/09:00am 11.8 7.5 9.2 84 1.3 W 22 32 12 17 1018.6 1018.6 3.2
05/08:30am 12.0 8.0 9.0 82 1.5 W 20 30 11 16 1018.3 1018.3 3.2
05/08:00am 11.4 7.5 8.6 83 1.4 W 19 28 10 15 1017.8 1017.8 3.2
05/07:30am 10.4 7.5 8.0 85 1.2 WNW 13 19 7 10 1017.4 1017.4 3.2
05/07:00am 9.7 7.5 7.8 88 0.9 NW 9 17 5 9 1017.0 1017.0 3.2
05/06:30am 9.5 7.2 7.3 86 1.1 NW 9 15 5 8 1016.5 1016.5 3.2
05/06:00am 10.0 7.0 7.6 85 1.2 NW 13 19 7 10 1016.4 1016.3 3.2
05/05:30am 10.1 7.5 7.9 86 1.1 WNW 11 20 6 11 1016.3 1016.2 3.2
05/05:00am 9.7 6.7 7.5 86 1.1 WNW 13 20 7 11 1015.9 1015.8 3.2
05/04:30am 10.0 7.0 7.9 87 1.0 WNW 13 20 7 11 1015.5 1015.5 3.2
05/04:00am 10.3 7.4 8.2 87 1.0 WNW 13 17 7 9 1015.2 1015.2 3.2
05/03:30am 10.9 7.8 8.7 86 1.1 WNW 15 26 8 14 1015.1 1015.1 3.2
05/03:00am 11.3 7.9 9.0 86 1.2 W 17 24 9 13 1015.2 1015.2 3.2
05/02:30am 11.4 8.8 9.3 87 1.1 WNW 13 19 7 10 1015.1 1015.1 3.2
05/02:00am 11.4 9.3 9.7 89 0.9 NW 11 19 6 10 1015.2 1015.2 3.2
05/01:30am 11.5 9.0 9.8 89 0.9 WNW 13 20 7 11 1015.2 1015.2 3.2
05/01:00am 11.7 9.3 9.9 89 0.9 NW 13 17 7 9 1015.0 1015.0 3.2
05/12:30am 12.0 10.0 10.2 89 0.9 NW 11 17 6 9 1014.9 1014.9 3.2
05/12:00am 12.0 10.0 10.2 89 0.9 NW 11 17 6 9 1015.0 1015.0 3.2
 
Date/Time
WST
Temp
°C
App
Temp
°C
Dew
Point
Rel
Hum
%
Delta-T
°C
Wind Press
QNH
hPa
Press
MSL
hPa
Rain
since 9 am
mm
Dir
 
Spd
km/h
Gust
km/h
Spd
kts
Gust
kts
04/11:30pm 11.6 9.2 9.9 89 0.9 NW 13 17 7 9 1015.3 1015.3 3.0
04/11:00pm 12.3 10.0 10.4 88 1.0 NW 13 19 7 10 1015.3 1015.3 3.0
04/10:30pm 12.5 9.9 10.7 89 1.0 WNW 15 24 8 13 1015.7 1015.6 3.0
04/10:00pm 12.6 9.0 10.5 87 1.1 NW 20 30 11 16 1015.9 1015.8 2.6
04/09:30pm 12.6 9.8 10.1 85 1.3 NW 15 22 8 12 1015.8 1015.7 1.8
04/09:00pm 12.6 9.7 9.8 83 1.5 NW 15 20 8 11 1015.7 1015.6 1.8
04/08:30pm 12.9 10.1 9.9 82 1.6 NNW 15 24 8 13 1015.5 1015.5 1.2
04/08:00pm 13.4 10.1 9.5 77 2.0 NW 17 24 9 13 1016.1 1016.0 0.8
04/07:30pm 14.7 10.7 8.4 66 3.2 NW 19 30 10 16 1016.0 1015.9 0.0
04/07:00pm 14.7 11.8 8.2 65 3.3 NW 13 20 7 11 1015.2 1015.2 0.0
04/06:30pm 15.3 12.0 8.1 62 3.7 NW 15 22 8 12 1014.4 1014.4 0.0
04/06:00pm 15.3 12.8 8.3 63 3.6 NW 11 17 6 9 1014.0 1014.0 0.0
04/05:30pm 15.0 13.4 8.7 66 3.3 NNW 7 9 4 5 1013.7 1013.6 0.0
04/05:00pm 15.9 13.4 8.2 60 4.0 NNW 11 17 6 9 1013.3 1013.2 0.0
04/04:30pm 16.3 13.2 7.3 55 4.6 NW 13 22 7 12 1013.7 1013.6 0.0
04/04:00pm 16.7 12.7 6.8 52 5.0 WNW 17 26 9 14 1014.1 1014.1 0.0
04/03:30pm 16.7 12.4 6.8 52 5.0 NW 19 24 10 13 1013.8 1013.8 0.0
04/03:00pm 17.1 12.7 7.5 53 4.9 NW 20 28 11 15 1013.9 1013.9 0.0
04/02:30pm 17.6 13.0 6.5 48 5.6 NW 20 26 11 14 1013.4 1013.3 0.0
04/02:00pm 17.5 12.9 6.4 48 5.6 NW 20 32 11 17 1013.7 1013.6 0.0
04/01:30pm 17.3 12.1 5.3 45 5.9 WNW 22 33 12 18 1014.1 1014.1 0.0
04/01:00pm 17.0 12.4 5.6 47 5.6 WNW 19 28 10 15 1014.3 1014.3 0.0
04/12:30pm 16.4 11.9 6.0 50 5.1 WNW 19 26 10 14 1014.6 1014.6 0.0
04/12:00pm 16.5 11.9 6.3 51 5.1 NW 20 30 11 16 1015.0 1015.0 0.0
04/11:30am 16.0 11.6 6.7 54 4.6 NW 19 26 10 14 1015.1 1015.1 0.0
04/11:00am 15.7 11.1 6.7 55 4.5 NW 20 26 11 14 1015.4 1015.4 0.0
04/10:30am 14.8 10.9 5.3 53 4.6 NW 15 22 8 12 1015.8 1015.7 0.0
04/10:00am 13.6 9.4 5.5 58 3.9 WNW 17 22 9 12 1016.2 1016.1 0.0
04/09:30am 13.1 8.5 5.8 61 3.5 NW 19 24 10 13 1016.4 1016.3 0.0
04/09:00am 11.4 8.0 6.1 70 2.5 N 13 17 7 9 1016.3 1016.2 0.2
04/08:30am 9.5 6.3 5.3 75 1.9 N 11 17 6 9 1016.6 1016.6 0.2
04/08:00am 7.5 4.7 5.1 85 1.1 N 9 13 5 7 1016.8 1016.8 0.2
04/07:30am 5.9 3.4 4.5 91 0.6 N 7 13 4 7 1016.6 1016.6 0.2
04/07:00am 4.7 2.1 3.4 91 0.5 N 6 7 3 4 1016.1 1016.0 0.2
04/06:30am 3.4 0.6 2.1 91 0.5 ENE 6 6 3 3 1015.3 1015.3 0.0
04/06:00am 2.9 1.1 1.4 90 0.6 CALM 0 0 0 0 1015.8 1015.7 0.0
04/05:30am 3.1 1.4 1.6 90 0.6 CALM 0 0 0 0 1016.1 1016.0 0.0
04/05:00am 3.7 1.7 2.2 90 0.6 SE 2 4 1 2 1016.2 1016.1 0.0
04/04:30am 4.0 2.4 2.5 90 0.6 CALM 0 4 0 2 1016.5 1016.5 0.0
04/04:00am 3.8 1.4 2.2 89 0.6 ESE 4 6 2 3 1016.7 1016.7 0.0
04/03:30am 5.8 4.2 4.3 90 0.7 ESE 2 4 1 2 1016.8 1016.8 0.0
04/03:00am 5.4 3.3 3.7 89 0.7 ESE 4 6 2 3 1017.1 1017.1 0.0
04/02:30am 5.8 4.5 4.1 89 0.7 CALM 0 4 0 2 1017.6 1017.6 0.0
04/02:00am 6.3 4.3 4.6 89 0.7 E 4 4 2 2 1018.2 1018.2 0.0
04/01:30am 6.6 5.1 4.9 89 0.8 E 2 4 1 2 1018.7 1018.7 0.0
04/01:00am 6.9 5.0 4.9 87 0.9 ENE 4 4 2 2 1019.1 1019.1 0.0
04/12:30am 7.2 5.0 5.2 87 0.9 ENE 6 6 3 3 1019.3 1019.3 0.0
04/12:00am 7.6 5.4 5.4 86 1.0 E 6 7 3 4 1019.6 1019.6 0.0
 
Date/Time
WST
Temp
°C
App
Temp
°C
Dew
Point
Rel
Hum
%
Delta-T
°C
Wind Press
QNH
hPa
Press
MSL
hPa
Rain
since 9 am
mm
Dir
 
Spd
km/h
Gust
km/h
Spd
kts
Gust
kts
03/11:30pm 7.8 5.0 5.3 84 1.1 E 9 11 5 6 1019.9 1019.9 0.0
03/11:00pm 8.4 6.3 5.9 84 1.2 E 6 7 3 4 1020.4 1020.4 0.0
03/10:30pm 8.9 5.9 6.2 83 1.3 E 11 13 6 7 1020.6 1020.6 0.0
03/10:00pm 9.1 6.1 6.2 82 1.4 E 11 15 6 8 1021.0 1021.0 0.0
03/09:30pm 9.3 6.3 6.2 81 1.5 E 11 17 6 9 1021.2 1021.2 0.0
03/09:00pm 9.7 6.3 6.1 78 1.7 E 13 20 7 11 1021.3 1021.3 0.0
03/08:30pm 9.9 7.1 5.1 72 2.2 ESE 9 13 5 7 1021.5 1021.5 0.0
03/08:00pm 10.1 7.2 4.9 70 2.4 E 9 13 5 7 1021.2 1021.2 0.0
03/07:30pm 10.3 7.7 4.2 66 2.8 E 7 11 4 6 1021.4 1021.4 0.0
03/07:00pm 10.8 8.3 3.8 62 3.1 ESE 6 9 3 5 1021.6 1021.6 0.0
03/06:30pm 11.0 8.5 3.5 60 3.4 SE 6 7 3 4 1021.6 1021.6 0.0
03/06:00pm 11.8 9.6 3.3 56 3.8 E 4 6 2 3 1021.6 1021.6 0.0
03/05:30pm 13.1 10.5 4.0 54 4.2 E 7 9 4 5 1021.4 1021.4 0.0
03/05:00pm 14.3 11.2 3.7 49 4.9 E 9 13 5 7 1021.6 1021.6 0.0
03/04:30pm 14.3 11.8 3.7 49 4.9 E 6 11 3 6 1022.1 1022.2 0.0
03/04:00pm 14.7 12.0 3.8 48 5.1 ENE 7 13 4 7 1022.1 1022.2 0.0
03/03:30pm 15.2 12.4 3.4 45 5.5 N 7 13 4 7 1022.3 1022.3 0.0
03/03:00pm 14.7 12.3 4.4 50 4.8 NNE 6 13 3 7 1022.3 1022.3 0.0
03/02:30pm 15.0 12.3 5.5 53 4.6 NE 9 15 5 8 1022.3 1022.3 0.0
03/02:00pm 14.1 11.7 5.2 55 4.2 N 7 13 4 7 1022.7 1022.7 0.0
03/01:30pm 13.6 10.5 3.7 51 4.6 NNE 9 19 5 10 1022.8 1022.8 0.0
03/01:00pm 13.2 9.9 4.4 55 4.1 NE 11 19 6 10 1023.5 1023.5 0.0
03/12:30pm 12.3 9.0 4.3 58 3.7 NNE 11 19 6 10 1023.9 1023.9 0.0
03/12:00pm 12.9 9.4 5.6 61 3.5 NE 13 20 7 11 1024.4 1024.5 0.0
03/11:30am 12.3 8.1 5.5 63 3.2 NE 17 24 9 13 1024.5 1024.6 0.0
03/11:00am 11.4 7.5 5.3 66 2.8 NE 15 22 8 12 1024.8 1024.9 0.0
03/10:30am 10.9 6.6 5.2 68 2.7 NE 17 24 9 13 1025.1 1025.2 0.0
03/10:00am 10.5 6.2 5.3 70 2.4 NE 17 24 9 13 1025.6 1025.6 0.0
03/09:30am 9.5 5.3 5.7 77 1.8 ENE 17 24 9 13 1025.8 1025.8 0.0
03/09:00am 8.4 5.6 6.9 90 0.7 ENE 11 15 6 8 1026.1 1026.1 0.0
03/08:30am 7.4 5.2 6.2 92 0.6 E 7 9 4 5 1026.4 1026.4 0.0
03/08:00am 6.4 4.2 5.2 92 0.5 ESE 6 7 3 4 1026.4 1026.4 0.0
03/07:30am 5.3 2.9 4.1 92 0.5 SE 6 7 3 4 1026.2 1026.2 0.0
03/07:00am 4.2 1.9 2.9 91 0.5 E 4 6 2 3 1026.1 1026.1 0.0
03/06:30am 3.9 2.3 2.6 91 0.5 CALM 0 0 0 0 1025.7 1025.7 0.0
03/06:00am 4.1 2.6 2.8 91 0.5 CALM 0 0 0 0 1025.6 1025.6 0.0
03/05:30am 5.1 3.7 3.8 91 0.6 CALM 0 0 0 0 1025.7 1025.7 0.0
03/05:00am 5.7 3.3 4.3 91 0.6 SE 6 9 3 5 1025.3 1025.4 0.0
03/04:30am 5.6 3.0 4.2 91 0.6 SE 7 9 4 5 1025.4 1025.5 0.0
03/04:00am 5.5 3.5 4.2 91 0.6 ESE 4 6 2 3 1025.7 1025.7 0.0
03/03:30am 5.4 3.3 4.1 91 0.6 ESE 4 6 2 3 1025.9 1025.9 0.0
03/03:00am 5.4 3.0 4.1 91 0.6 E 6 7 3 4 1026.0 1026.0 0.0
03/02:30am 5.3 2.6 3.8 90 0.6 ENE 7 13 4 7 1026.4 1026.4 0.0
03/02:00am 5.2 2.5 3.7 90 0.6 ESE 7 9 4 5 1026.3 1026.3 0.0
03/01:30am 5.6 3.2 4.1 90 0.6 ESE 6 9 3 5 1026.4 1026.4 0.0
03/01:00am 5.4 3.3 3.7 89 0.7 SE 4 6 2 3 1026.6 1026.6 0.0
03/12:30am 5.8 4.5 4.1 89 0.7 CALM 0 4 0 2 1026.6 1026.6 0.0
03/12:00am 6.2 4.2 4.5 89 0.7 SE 4 6 2 3 1026.7 1026.7 0.0
 
Date/Time
WST
Temp
°C
App
Temp
°C
Dew
Point
Rel
Hum
%
Delta-T
°C
Wind Press
QNH
hPa
Press
MSL
hPa
Rain
since 9 am
mm
Dir
 
Spd
km/h
Gust
km/h
Spd
kts
Gust
kts
02/11:30pm 6.5 3.6 4.8 89 0.8 SE 9 13 5 7 1027.0 1027.0 0.0
02/11:00pm 6.5 3.2 4.5 87 0.9 SE 11 19 6 10 1027.0 1027.0 0.0
02/10:30pm 6.4 3.5 4.6 88 0.8 SE 9 13 5 7 1027.0 1027.0 0.0
02/10:00pm 6.4 3.1 4.4 87 0.9 SSE 11 13 6 7 1027.0 1027.0 0.0
02/09:30pm 6.9 3.2 4.7 86 1.0 SE 13 19 7 10 1027.2 1027.3 0.0
02/09:00pm 6.8 3.1 4.3 84 1.1 SSE 13 19 7 10 1027.3 1027.4 0.0
02/08:30pm 7.7 4.4 4.7 81 1.3 SE 11 17 6 9 1027.4 1027.5 0.0
02/08:00pm 8.5 5.5 4.3 75 1.9 ESE 9 15 5 8 1027.4 1027.5 0.0
02/07:30pm 8.4 5.2 5.0 79 1.5 E 11 17 6 9 1027.4 1027.5 0.0
02/07:00pm 8.9 5.4 5.3 78 1.6 E 13 24 7 13 1027.2 1027.3 0.0
02/06:30pm 8.9 6.2 5.8 81 1.4 ENE 9 13 5 7 1027.2 1027.3 0.0
02/06:00pm 9.3 7.2 5.7 78 1.7 NE 6 7 3 4 1026.7 1026.7 0.0
02/05:30pm 9.6 7.3 5.8 77 1.8 ENE 7 11 4 6 1026.2 1026.2 0.0
02/05:00pm 10.3 7.1 5.1 70 2.4 E 11 15 6 8 1026.0 1026.0 0.0
02/04:30pm 10.9 7.5 4.1 63 3.1 ESE 11 15 6 8 1025.8 1025.8 0.0
02/04:00pm 11.2 7.9 4.4 63 3.1 ESE 11 22 6 12 1025.8 1025.8 0.0
02/03:30pm 11.1 7.4 4.3 63 3.1 ESE 13 17 7 9 1025.7 1025.7 0.0
02/03:00pm 11.5 7.6 3.5 58 3.6 SE 13 19 7 10 1025.7 1025.7 0.0
02/02:30pm 11.1 6.9 3.6 60 3.4 SE 15 19 8 10 1025.8 1025.8 0.0
02/02:00pm 10.8 6.1 3.4 60 3.3 SE 17 24 9 13 1025.8 1025.8 0.0
02/01:30pm 11.2 7.3 3.5 59 3.5 SE 13 20 7 11 1026.0 1026.0 0.0
02/01:00pm 10.8 6.1 3.1 59 3.4 SE 17 20 9 11 1026.2 1026.2 0.0
02/12:30pm 11.2 6.1 3.3 58 3.5 ESE 19 28 10 15 1026.5 1026.5 0.0
02/12:00pm 11.2 6.9 3.5 59 3.4 SE 15 22 8 12 1026.9 1026.9 0.0

Other Formats:

Comma delimited format used in spreadsheet applications
http://www.bom.gov.au/fwo/IDW60801/IDW60801.94641.axf

JavaScript Object Notation format (JSON) in row-major order
http://www.bom.gov.au/fwo/IDW60801/IDW60801.94641.json